Time;durP1;ratioP1;P1;durP2;ratioP2;P2;SDS_P1;SDS_P2;PMS_P1;PMS_P2;Temp;Humidity;BMP_temperature;BMP_pressure;BME280_temperature;BME280_humidity;BME280_pressure;Samples;Min_cycle;Max_cycle;Signal;HPM_P1;HPM_P2
2022/01/17 00:00:18;;;;;;;17.77;10.77;;;;;;;1.70;44.94;94331.28;5003073;28;20055;-73
2022/01/17 00:02:45;;;;;;;18.45;12.90;;;;;;;1.61;44.75;94316.00;5008009;28;20405;-73
2022/01/17 00:05:11;;;;;;;22.08;11.35;;;;;;;1.56;44.90;94329.03;5007067;28;20110;-74
2022/01/17 00:07:37;;;;;;;30.15;13.10;;;;;;;1.60;44.99;94329.34;5003011;28;20049;-74
2022/01/17 00:10:03;;;;;;;30.90;13.18;;;;;;;1.56;44.88;94317.75;4999746;28;20042;-73
2022/01/17 00:12:32;;;;;;;18.85;11.50;;;;;;;1.52;44.56;94296.47;5007640;28;20034;-74
2022/01/17 00:14:59;;;;;;;19.90;10.32;;;;;;;1.75;44.83;94333.97;5002664;28;20180;-75
2022/01/17 00:17:33;;;;;;;25.15;10.68;;;;;;;1.51;44.72;94315.88;5001131;28;20148;-73
2022/01/17 00:20:08;;;;;;;23.10;11.43;;;;;;;1.60;44.83;94330.13;5003890;28;20092;-74
2022/01/17 00:22:34;;;;;;;26.67;12.60;;;;;;;1.79;44.50;94342.94;4999750;28;20079;-73
2022/01/17 00:24:59;;;;;;;28.08;13.85;;;;;;;1.83;44.55;94329.06;5000020;28;20056;-74
2022/01/17 00:27:25;;;;;;;18.77;11.70;;;;;;;1.82;44.33;94342.44;5003320;28;20036;-73
2022/01/17 00:29:50;;;;;;;27.98;12.52;;;;;;;1.71;44.55;94340.75;5006312;28;20029;-73
2022/01/17 00:32:15;;;;;;;26.23;12.25;;;;;;;1.50;45.00;94343.13;4997409;28;20044;-73
2022/01/17 00:34:41;;;;;;;20.40;11.45;;;;;;;1.44;45.38;94338.03;5008099;28;20120;-73
2022/01/17 00:37:06;;;;;;;27.40;12.88;;;;;;;1.52;45.25;94337.66;5009990;28;20048;-75
2022/01/17 00:39:31;;;;;;;24.25;12.77;;;;;;;1.26;45.05;94312.94;5006308;28;20500;-74
2022/01/17 00:41:57;;;;;;;27.45;13.07;;;;;;;1.39;45.22;94354.50;5001602;28;20030;-74
2022/01/17 00:44:23;;;;;;;19.23;11.18;;;;;;;1.47;45.53;94348.84;4998641;28;20409;-74
2022/01/17 00:46:51;;;;;;;26.00;12.38;;;;;;;1.24;45.30;94346.44;4999401;28;20409;-74
2022/01/17 00:49:19;;;;;;;23.98;11.80;;;;;;;1.18;45.87;94342.19;5000036;28;20177;-73
2022/01/17 00:51:45;;;;;;;24.20;12.48;;;;;;;1.19;45.73;94328.03;5002750;28;20049;-74
2022/01/17 00:54:10;;;;;;;21.83;11.65;;;;;;;1.22;45.46;94333.59;5005554;28;20108;-73
2022/01/17 00:56:35;;;;;;;26.27;12.30;;;;;;;1.27;45.50;94329.44;5002477;28;20041;-73
2022/01/17 00:59:01;;;;;;;20.75;11.93;;;;;;;1.17;45.35;94288.19;5002356;28;20041;-73
2022/01/17 01:01:26;;;;;;;24.92;11.48;;;;;;;1.45;45.11;94321.28;5004535;28;20072;-73
2022/01/17 01:03:52;;;;;;;26.33;13.02;;;;;;;1.45;45.19;94323.91;5007030;28;20528;-74
2022/01/17 01:06:17;;;;;;;29.83;13.02;;;;;;;1.41;44.99;94294.78;5002794;28;20514;-73
2022/01/17 01:08:43;;;;;;;30.73;14.32;;;;;;;1.51;44.83;94315.88;5003489;28;20477;-74
2022/01/17 01:11:09;;;;;;;28.95;14.00;;;;;;;1.43;44.72;94274.34;4997559;28;20434;-75
2022/01/17 01:13:36;;;;;;;33.85;14.57;;;;;;;1.57;44.55;94325.38;5009381;28;20456;-73
2022/01/17 01:29:09;;;;;;;20.85;11.77;;;;;;;1.49;44.92;94307.44;5001523;28;20052;-73
2022/01/17 01:31:46;;;;;;;24.55;12.73;;;;;;;1.51;44.85;94304.59;5004024;28;20444;-73
2022/01/17 01:34:12;;;;;;;21.95;13.75;;;;;;;1.45;45.02;94306.34;5002707;28;20038;-73
2022/01/17 01:36:43;;;;;;;24.83;14.52;;;;;;;1.35;45.35;94294.97;5003835;28;20041;-75
2022/01/17 01:39:10;;;;;;;33.65;14.18;;;;;;;1.24;45.19;94284.34;5005041;28;20092;-75
2022/01/17 01:41:41;;;;;;;24.58;13.57;;;;;;;1.34;45.10;94299.41;5004107;28;20048;-74
2022/01/17 01:44:18;;;;;;;27.48;13.15;;;;;;;1.33;45.44;94289.94;4999963;28;20046;-73
2022/01/17 01:46:45;;;;;;;29.70;13.52;;;;;;;1.44;45.04;94310.00;5000614;28;20640;-74
2022/01/17 01:49:12;;;;;;;29.15;15.15;;;;;;;1.38;45.08;94303.13;5006389;28;20061;-73
2022/01/17 01:51:38;;;;;;;25.13;13.70;;;;;;;1.40;44.77;94298.44;5003863;28;20038;-73
2022/01/17 01:54:04;;;;;;;29.88;15.63;;;;;;;1.53;44.52;94305.91;5005341;28;20029;-73
2022/01/17 01:56:30;;;;;;;30.77;14.32;;;;;;;1.49;44.36;94289.09;4996357;28;20029;-75
2022/01/17 01:58:56;;;;;;;27.02;14.20;;;;;;;1.48;44.63;94289.34;4999203;28;20033;-73
2022/01/17 02:01:22;;;;;;;29.42;14.07;;;;;;;1.46;44.32;94286.19;4995534;28;20528;-73
2022/01/17 02:03:47;;;;;;;31.23;14.95;;;;;;;1.26;44.40;94276.25;4999236;28;20127;-73
2022/01/17 02:06:12;;;;;;;30.58;14.40;;;;;;;1.41;44.61;94283.50;5001554;28;20512;-73
2022/01/17 02:08:38;;;;;;;37.63;16.02;;;;;;;1.47;44.06;94288.53;5007377;28;20025;-74
2022/01/17 02:11:03;;;;;;;27.83;15.05;;;;;;;1.00;45.28;94276.94;5003769;28;20406;-73
2022/01/17 02:13:29;;;;;;;34.28;16.73;;;;;;;1.05;44.86;94262.09;4998297;28;21029;-74
2022/01/17 02:16:03;;;;;;;30.95;16.13;;;;;;;1.10;44.99;94272.63;5007027;28;20041;-73
2022/01/17 02:18:30;;;;;;;35.38;15.63;;;;;;;0.85;45.16;94243.50;4998190;28;20032;-74
2022/01/17 02:23:45;;;;;;;34.92;15.40;;;;;;;0.91;45.04;94252.22;4999462;28;20527;-74
2022/01/17 02:26:11;;;;;;;33.55;15.88;;;;;;;0.77;44.79;94241.31;5000343;28;20420;-74
2022/01/17 02:28:39;;;;;;;35.80;16.88;;;;;;;1.16;44.52;94270.88;5006561;28;20513;-73
2022/01/17 02:31:06;;;;;;;35.58;18.27;;;;;;;1.08;44.61;94279.16;5002239;28;20045;-74
2022/01/17 02:33:35;;;;;;;39.13;15.18;;;;;;;1.04;44.32;94273.59;5003493;28;20395;-73
2022/01/17 02:36:02;;;;;;;37.55;15.70;;;;;;;0.98;44.43;94269.34;5002459;28;20121;-73
2022/01/17 02:38:27;;;;;;;35.10;15.57;;;;;;;1.05;44.45;94269.97;4998849;28;20145;-73
2022/01/17 02:40:54;;;;;;;23.52;13.93;;;;;;;1.00;44.40;94269.09;5007563;28;20030;-73
2022/01/17 02:43:21;;;;;;;27.75;13.07;;;;;;;0.93;44.71;94279.75;5005613;28;20065;-74
2022/01/17 02:48:18;;;;;;;31.40;14.20;;;;;;;0.78;45.38;94266.47;4998009;28;20125;-73
2022/01/17 02:50:43;;;;;;;29.40;13.68;;;;;;;0.72;45.47;94265.59;4997030;28;20030;-74
2022/01/17 02:53:09;;;;;;;31.40;16.45;;;;;;;0.80;45.49;94262.56;5009683;28;20042;-74
2022/01/17 02:55:36;;;;;;;30.77;16.08;;;;;;;0.94;45.40;94272.66;5006290;28;20393;-74
2022/01/17 02:58:01;;;;;;;31.92;17.13;;;;;;;0.90;44.96;94245.38;5001839;28;20509;-74
2022/01/17 03:00:27;;;;;;;30.67;14.98;;;;;;;1.01;45.05;94253.16;5010311;28;20037;-73
2022/01/17 03:02:53;;;;;;;30.75;15.07;;;;;;;1.09;44.99;94265.81;5002838;28;20548;-73
2022/01/17 03:05:20;;;;;;;29.13;13.10;;;;;;;1.05;44.86;94264.72;5009252;28;20144;-73
2022/01/17 03:07:49;;;;;;;27.02;14.45;;;;;;;0.96;44.90;94258.31;5006220;28;20037;-74
2022/01/17 03:10:32;;;;;;;28.38;12.57;;;;;;;1.04;44.51;94241.38;5005239;28;20042;-73
2022/01/17 03:13:05;;;;;;;21.77;10.95;;;;;;;1.17;44.83;94254.13;5007898;28;20048;-73
2022/01/17 03:15:30;;;;;;;18.02;10.50;;;;;;;1.10;44.44;94232.56;5013176;28;20045;-74
2022/01/17 03:17:56;;;;;;;22.58;11.07;;;;;;;1.22;44.49;94246.34;5006412;28;20030;-74
2022/01/17 03:20:22;;;;;;;24.83;10.70;;;;;;;1.08;45.14;94237.25;5007211;28;20795;-73
2022/01/17 03:22:47;;;;;;;22.13;12.00;;;;;;;0.93;44.96;94250.16;4996424;28;20093;-73
2022/01/17 03:25:12;;;;;;;22.08;11.10;;;;;;;0.66;45.32;94216.81;5000186;28;20113;-73
2022/01/17 03:27:38;;;;;;;27.40;10.40;;;;;;;0.77;45.53;94241.31;5003411;28;20042;-73
2022/01/17 03:30:05;;;;;;;21.73;10.32;;;;;;;0.59;44.99;94200.50;4990604;28;20473;-73
2022/01/17 03:32:30;;;;;;;18.63;9.77;;;;;;;0.87;45.66;94256.34;5004822;28;20264;-74
2022/01/17 03:34:56;;;;;;;22.55;10.25;;;;;;;0.76;45.01;94235.28;5002652;28;20038;-73
2022/01/17 03:37:22;;;;;;;20.05;9.02;;;;;;;0.63;45.58;94256.56;5006483;28;20148;-75
2022/01/17 03:39:47;;;;;;;19.00;9.73;;;;;;;0.70;45.30;94245.91;5000652;28;20038;-73
2022/01/17 03:42:18;;;;;;;16.95;8.32;;;;;;;0.83;45.40;94276.22;5004385;28;20076;-75
2022/01/17 03:44:45;;;;;;;18.48;10.52;;;;;;;0.89;45.15;94281.25;5003149;28;20531;-74
2022/01/17 03:47:11;;;;;;;21.38;9.13;;;;;;;0.88;44.85;94276.28;5005949;28;20053;-74
2022/01/17 03:49:36;;;;;;;14.50;8.23;;;;;;;0.69;45.10;94257.44;5000501;28;20621;-74
2022/01/17 03:52:02;;;;;;;14.75;9.68;;;;;;;0.73;45.50;94282.09;5005844;28;20084;-74
2022/01/17 03:54:31;;;;;;;15.68;8.48;;;;;;;0.70;45.30;94285.97;5005916;28;20490;-75
2022/01/17 03:56:59;;;;;;;19.27;9.18;;;;;;;0.63;45.68;94282.75;5003377;28;20032;-74
2022/01/17 03:59:25;;;;;;;15.10;8.80;;;;;;;0.25;46.25;94290.53;5003105;28;20041;-73
2022/01/17 04:01:51;;;;;;;17.73;8.48;;;;;;;0.36;46.28;94277.34;4996894;28;20043;-72
2022/01/17 04:04:17;;;;;;;21.50;9.95;;;;;;;0.23;46.28;94245.47;4997630;28;20054;-73
2022/01/17 04:06:42;;;;;;;18.52;10.27;;;;;;;0.42;46.17;94286.06;5003816;28;20130;-73
2022/01/17 04:09:08;;;;;;;15.80;9.75;;;;;;;0.40;46.20;94269.81;5003626;28;20032;-73
2022/01/17 04:11:34;;;;;;;15.55;8.15;;;;;;;0.60;45.65;94293.66;5003476;28;20053;-74
2022/01/17 04:13:59;;;;;;;22.38;9.55;;;;;;;0.58;45.70;94279.25;5004897;28;20136;-74
2022/01/17 04:16:24;;;;;;;14.02;8.18;;;;;;;0.64;45.18;94262.59;5006737;28;21012;-74
2022/01/17 04:18:50;;;;;;;14.48;8.40;;;;;;;0.71;45.21;94300.66;5006193;28;20493;-73
2022/01/17 04:21:16;;;;;;;17.80;10.07;;;;;;;0.66;45.42;94287.50;5001245;28;20098;-73
2022/01/17 04:23:41;;;;;;;21.60;9.60;;;;;;;0.74;45.04;94294.94;5005444;28;20501;-73
2022/01/17 04:26:07;;;;;;;19.10;9.95;;;;;;;0.76;45.00;94286.84;5004382;28;20091;-73
2022/01/17 04:28:32;;;;;;;21.67;10.50;;;;;;;0.75;45.46;94291.28;5002741;28;20042;-73
2022/01/17 04:30:59;;;;;;;24.42;10.02;;;;;;;0.68;45.21;94298.53;4996238;28;20105;-72
2022/01/17 04:33:24;;;;;;;17.67;9.27;;;;;;;0.68;45.43;94280.19;4999388;28;20640;-73
2022/01/17 04:35:50;;;;;;;21.65;10.27;;;;;;;0.70;45.28;94262.41;5005689;28;20021;-74
2022/01/17 04:38:17;;;;;;;18.75;10.13;;;;;;;0.77;45.16;94281.38;5003248;28;20029;-72
2022/01/17 04:40:46;;;;;;;19.67;9.77;;;;;;;0.61;45.19;94260.44;4999442;28;20045;-74
2022/01/17 04:43:21;;;;;;;19.90;9.23;;;;;;;0.88;44.81;94279.69;5007512;28;20520;-73
2022/01/17 04:45:48;;;;;;;14.65;9.27;;;;;;;0.40;45.95;94271.66;4994133;28;20050;-73
2022/01/17 04:48:13;;;;;;;28.48;9.65;;;;;;;0.65;45.32;94275.44;5001343;28;20022;-73
2022/01/17 04:50:42;;;;;;;20.95;11.40;;;;;;;0.63;45.32;94267.03;5001786;28;20057;-75
2022/01/17 04:53:08;;;;;;;24.60;11.25;;;;;;;0.52;45.33;94259.25;5018434;28;20026;-73
2022/01/17 04:55:36;;;;;;;21.52;12.23;;;;;;;0.64;45.05;94260.75;5000314;28;20188;-74
2022/01/17 04:58:01;;;;;;;24.92;13.05;;;;;;;0.62;44.82;94222.78;5001612;28;20191;-73
2022/01/17 05:00:27;;;;;;;25.40;11.35;;;;;;;0.57;45.11;94272.44;5005132;28;20091;-75
2022/01/17 05:02:53;;;;;;;28.17;12.43;;;;;;;0.23;46.04;94255.94;5002455;28;20014;-73
2022/01/17 05:05:20;;;;;;;32.20;14.27;;;;;;;0.15;46.22;94238.03;5006121;28;20696;-72
2022/01/17 05:07:46;;;;;;;23.83;12.48;;;;;;;0.07;45.96;94272.41;5002277;28;20069;-73
2022/01/17 05:10:16;;;;;;;23.15;13.20;;;;;;;0.42;45.66;94275.59;5002297;28;20113;-73
2022/01/17 05:12:43;;;;;;;30.00;13.63;;;;;;;0.22;46.00;94260.38;5001587;28;20540;-72
2022/01/17 05:15:33;;;;;;;23.85;12.40;;;;;;;0.40;45.87;94261.97;5000188;28;20029;-74
2022/01/17 05:20:45;;;;;;;22.05;13.43;;;;;;;0.22;45.67;94275.28;4994771;28;20048;-73
2022/01/17 05:23:10;;;;;;;20.58;12.70;;;;;;;0.39;45.58;94277.91;5006327;28;20434;-73
2022/01/17 05:25:36;;;;;;;23.88;13.82;;;;;;;0.46;45.56;94281.94;5004004;28;20030;-73
2022/01/17 05:28:02;;;;;;;26.38;12.30;;;;;;;0.29;45.74;94275.94;5004574;28;20053;-73
2022/01/17 05:30:27;;;;;;;25.55;11.52;;;;;;;0.02;45.90;94249.59;5005528;28;20038;-73
2022/01/17 05:32:54;;;;;;;27.70;15.30;;;;;;;0.17;46.12;94289.06;4999811;28;20117;-73
2022/01/17 05:35:20;;;;;;;34.72;16.88;;;;;;;-0.18;46.89;94273.56;5004208;28;20251;-73
2022/01/17 05:37:47;;;;;;;30.65;15.20;;;;;;;0.13;46.39;94276.72;5003121;28;20402;-75
2022/01/17 05:40:16;;;;;;;31.58;15.85;;;;;;;0.27;45.94;94278.78;5003898;28;20133;-73
2022/01/17 05:42:41;;;;;;;36.25;17.35;;;;;;;-0.07;46.66;94271.94;5005909;28;20053;-73
2022/01/17 05:45:09;;;;;;;35.63;16.73;;;;;;;0.15;46.30;94290.34;5009810;28;20120;-75
2022/01/17 05:47:34;;;;;;;29.40;14.95;;;;;;;0.30;45.95;94274.91;5001311;28;20052;-74
2022/01/17 05:50:02;;;;;;;31.90;14.93;;;;;;;0.30;45.93;94278.28;5011125;28;20041;-74
2022/01/17 05:52:29;;;;;;;29.70;14.23;;;;;;;0.22;46.09;94264.81;5000827;28;20253;-73
2022/01/17 05:54:55;;;;;;;29.77;15.57;;;;;;;0.27;45.96;94257.06;5005525;28;20100;-74
2022/01/17 05:57:20;;;;;;;38.45;17.33;;;;;;;0.42;45.53;94278.22;5004771;28;20456;-73
2022/01/17 05:59:45;;;;;;;31.00;15.93;;;;;;;0.63;45.47;94292.41;5003535;28;20486;-73
2022/01/17 06:02:11;;;;;;;31.63;17.08;;;;;;;0.64;44.97;94280.91;5003745;28;20034;-73
2022/01/17 06:04:36;;;;;;;26.42;14.73;;;;;;;0.39;45.91;94277.91;5006836;28;20053;-74
2022/01/17 06:07:03;;;;;;;33.03;17.10;;;;;;;0.02;46.02;94267.91;5007287;28;20037;-73
2022/01/17 06:09:29;;;;;;;31.65;15.25;;;;;;;0.10;46.28;94292.88;5010471;28;20567;-74
2022/01/17 06:11:56;;;;;;;23.92;12.85;;;;;;;-0.03;46.53;94308.84;5010531;28;20034;-74
2022/01/17 06:14:23;;;;;;;25.45;13.15;;;;;;;-0.21;46.87;94266.22;5012574;28;20083;-73
2022/01/17 06:16:49;;;;;;;24.25;13.93;;;;;;;-0.50;47.36;94277.69;5005867;28;20286;-73
2022/01/17 06:19:15;;;;;;;30.02;14.02;;;;;;;-0.17;47.32;94300.50;5005629;28;20053;-74
2022/01/17 06:21:41;;;;;;;33.50;13.73;;;;;;;-0.33;47.32;94272.50;5007160;28;20513;-73
2022/01/17 06:24:09;;;;;;;30.73;13.65;;;;;;;-0.18;47.00;94285.84;5008231;28;20021;-74
2022/01/17 06:26:37;;;;;;;25.85;14.77;;;;;;;-0.07;47.01;94282.38;5005700;28;20040;-74
2022/01/17 06:29:05;;;;;;;23.05;14.55;;;;;;;0.08;46.72;94274.00;5007410;28;20049;-73
2022/01/17 06:31:30;;;;;;;29.50;13.63;;;;;;;0.33;46.31;94295.34;5006538;28;20029;-73
2022/01/17 06:33:56;;;;;;;26.65;13.25;;;;;;;0.43;45.98;94300.75;5005698;28;20954;-73
2022/01/17 06:36:22;;;;;;;28.10;14.82;;;;;;;0.63;45.46;94306.31;5008657;28;20069;-74
2022/01/17 06:38:49;;;;;;;26.70;13.93;;;;;;;-0.11;46.40;94303.00;5002504;28;20022;-75
2022/01/17 06:41:16;;;;;;;26.65;13.80;;;;;;;0.06;46.59;94289.13;5008353;28;20459;-74
2022/01/17 06:43:42;;;;;;;28.63;15.50;;;;;;;0.53;45.75;94293.06;5006646;28;20742;-73
2022/01/17 06:46:07;;;;;;;31.52;14.85;;;;;;;0.33;46.29;94290.91;5003486;28;20053;-74
2022/01/17 06:48:32;;;;;;;29.33;14.02;;;;;;;0.40;46.32;94290.75;5002296;28;20095;-73
2022/01/17 06:50:58;;;;;;;29.58;17.60;;;;;;;0.61;46.04;94297.88;5005644;28;20541;-73
2022/01/17 06:53:27;;;;;;;35.45;16.05;;;;;;;0.71;45.49;94286.75;5006115;28;20045;-73
2022/01/17 06:55:53;;;;;;;32.13;15.32;;;;;;;0.62;45.67;94307.31;4989069;28;20185;-73
2022/01/17 06:58:18;;;;;;;29.55;15.88;;;;;;;0.73;45.67;94295.97;4988633;28;20038;-75
2022/01/17 07:00:44;;;;;;;31.85;17.30;;;;;;;0.59;45.45;94310.44;4996848;28;20037;-73
2022/01/17 07:03:10;;;;;;;37.63;18.02;;;;;;;0.25;46.24;94317.44;5007100;28;20120;-74
2022/01/17 07:05:35;;;;;;;30.65;16.30;;;;;;;0.38;46.18;94289.41;5006857;28;20322;-74
2022/01/17 07:08:01;;;;;;;32.95;16.27;;;;;;;0.34;46.72;94296.94;4999935;28;20034;-73
2022/01/17 07:10:28;;;;;;;35.58;18.15;;;;;;;-0.26;47.03;94270.56;5006716;28;20547;-73
2022/01/17 07:12:54;;;;;;;28.38;16.25;;;;;;;-0.31;47.61;94271.25;4998749;28;20038;-73
2022/01/17 07:15:19;;;;;;;39.33;21.60;;;;;;;-0.76;48.45;94296.50;5007468;28;20535;-73
2022/01/17 07:17:45;;;;;;;39.55;17.65;;;;;;;-1.21;49.69;94312.78;5006374;28;20216;-74
2022/01/17 07:20:11;;;;;;;43.10;19.63;;;;;;;-1.23;49.74;94311.44;5003624;28;20037;-73
2022/01/17 07:22:36;;;;;;;35.13;19.25;;;;;;;-0.63;49.07;94311.94;5005034;28;20173;-73
2022/01/17 07:25:03;;;;;;;46.78;20.55;;;;;;;-1.05;49.52;94327.78;5004142;28;20038;-73
2022/01/17 07:27:29;;;;;;;42.80;19.30;;;;;;;-0.28;48.61;94351.81;5002140;28;20255;-74
2022/01/17 07:29:55;;;;;;;43.92;18.80;;;;;;;-0.59;48.60;94341.78;5007257;28;20025;-73
2022/01/17 07:32:20;;;;;;;53.90;21.42;;;;;;;-0.56;48.37;94341.31;5006025;28;20409;-73
2022/01/17 07:34:46;;;;;;;45.67;20.13;;;;;;;0.11;47.49;94304.91;5002513;28;20033;-73
2022/01/17 07:37:11;;;;;;;40.88;18.63;;;;;;;-0.55;48.01;94288.84;5002422;28;20133;-74
2022/01/17 07:39:37;;;;;;;41.33;20.23;;;;;;;-0.45;48.37;94327.44;5002368;28;20058;-74
2022/01/17 07:42:02;;;;;;;38.28;17.88;;;;;;;-0.49;48.76;94300.19;4998750;28;20548;-73
2022/01/17 07:44:30;;;;;;;34.35;15.05;;;;;;;-0.43;48.33;94309.69;5000050;28;20096;-73
2022/01/17 07:46:58;;;;;;;33.63;17.92;;;;;;;0.24;47.61;94278.47;5007377;28;20041;-73
2022/01/17 07:49:25;;;;;;;22.95;11.30;;;;;;;0.34;45.97;94299.56;5000272;28;20046;-73
2022/01/17 07:52:00;;;;;;;9.63;4.88;;;;;;;0.56;41.37;94303.03;5008607;28;20547;-73
2022/01/17 07:54:32;;;;;;;4.57;3.85;;;;;;;0.65;41.90;94321.75;5003054;28;20393;-75
2022/01/17 07:56:59;;;;;;;5.78;3.08;;;;;;;0.84;42.96;94336.19;5007192;28;20025;-73
2022/01/17 07:59:25;;;;;;;6.18;2.65;;;;;;;0.78;44.51;94343.19;5004635;28;20046;-73
2022/01/17 08:01:51;;;;;;;4.45;3.22;;;;;;;0.95;45.01;94399.97;4995953;28;20033;-74
2022/01/17 08:04:16;;;;;;;5.80;3.30;;;;;;;1.14;45.01;94393.47;4998236;28;20093;-74
2022/01/17 08:06:42;;;;;;;3.95;3.08;;;;;;;1.30;45.30;94374.31;4999892;28;20037;-73
2022/01/17 08:09:14;;;;;;;5.40;3.97;;;;;;;1.35;44.64;94369.13;5005699;28;20034;-73
2022/01/17 08:11:39;;;;;;;4.95;3.22;;;;;;;1.46;43.97;94323.69;5005096;28;20080;-74
2022/01/17 08:14:05;;;;;;;6.45;4.15;;;;;;;1.46;43.72;94294.84;4998288;28;20116;-74
2022/01/17 08:16:30;;;;;;;6.65;3.25;;;;;;;1.72;43.70;94300.38;5002347;28;20045;-74
2022/01/17 08:18:56;;;;;;;5.78;3.42;;;;;;;1.70;43.31;94286.72;5005309;28;20034;-73
2022/01/17 08:21:22;;;;;;;6.28;3.88;;;;;;;1.86;43.01;94280.59;5003640;28;20329;-73
2022/01/17 08:23:49;;;;;;;6.65;3.30;;;;;;;2.11;42.69;94288.72;5002563;28;20063;-73
2022/01/17 08:26:14;;;;;;;9.07;4.40;;;;;;;2.19;42.09;94317.16;5000146;28;20056;-74
2022/01/17 08:28:41;;;;;;;7.03;3.47;;;;;;;2.11;41.38;94343.81;5003894;28;20042;-74
2022/01/17 08:31:07;;;;;;;10.43;3.15;;;;;;;2.13;41.01;94357.50;5006189;28;20125;-74
2022/01/17 08:33:33;;;;;;;8.50;3.45;;;;;;;2.20;41.21;94381.72;5003777;28;20533;-74
2022/01/17 08:35:58;;;;;;;5.88;3.03;;;;;;;2.06;40.21;94372.63;5005359;28;20021;-74
2022/01/17 08:38:28;;;;;;;3.35;2.35;;;;;;;2.25;40.45;94397.53;5004342;28;20071;-73
2022/01/17 08:40:54;;;;;;;5.47;3.47;;;;;;;2.39;40.38;94384.81;4999152;28;20042;-73
2022/01/17 08:43:19;;;;;;;4.03;2.65;;;;;;;2.53;40.18;94357.91;5006274;28;20052;-73
2022/01/17 08:45:48;;;;;;;3.63;2.83;;;;;;;2.51;40.70;94349.47;5003370;28;20063;-73
2022/01/17 08:48:13;;;;;;;5.35;2.20;;;;;;;2.61;40.20;94325.13;5001198;28;20045;-74
2022/01/17 08:50:41;;;;;;;5.38;2.40;;;;;;;2.84;40.07;94321.38;5004555;28;20311;-74
2022/01/17 08:53:10;;;;;;;4.45;2.63;;;;;;;2.60;40.53;94289.38;5000707;28;20038;-75
2022/01/17 08:55:36;;;;;;;4.05;2.20;;;;;;;2.78;40.88;94259.31;5002756;28;20088;-73
2022/01/17 08:58:03;;;;;;;6.40;2.50;;;;;;;2.86;40.79;94264.88;4994474;28;20045;-73
2022/01/17 09:00:32;;;;;;;3.22;2.33;;;;;;;2.73;40.84;94248.78;5001002;28;20560;-75
2022/01/17 09:03:01;;;;;;;3.85;2.30;;;;;;;2.78;40.64;94251.44;5005540;28;20169;-74
2022/01/17 09:05:26;;;;;;;4.45;2.47;;;;;;;2.94;40.27;94224.19;5000675;28;20123;-74
2022/01/17 09:07:52;;;;;;;2.90;2.03;;;;;;;2.88;40.18;94201.59;5001093;28;20045;-74
2022/01/17 09:10:17;;;;;;;5.65;3.38;;;;;;;2.82;39.08;94184.22;5004541;28;20053;-74
2022/01/17 09:12:43;;;;;;;3.22;2.38;;;;;;;3.08;38.66;94193.81;5002141;28;20046;-74
2022/01/17 09:15:10;;;;;;;3.90;2.40;;;;;;;3.27;38.53;94205.44;5006721;28;20029;-74
2022/01/17 09:17:37;;;;;;;3.92;2.35;;;;;;;2.97;37.67;94121.22;5005804;28;20036;-74
2022/01/17 09:20:04;;;;;;;2.35;1.80;;;;;;;3.34;37.25;94184.16;4990392;28;20041;-73
2022/01/17 09:22:29;;;;;;;4.13;2.75;;;;;;;3.29;37.56;94184.13;4999602;28;20068;-74
2022/01/17 09:24:55;;;;;;;3.75;2.83;;;;;;;3.50;37.35;94180.53;5002065;28;20049;-73
2022/01/17 09:27:20;;;;;;;4.38;2.60;;;;;;;3.61;37.65;94202.38;5000990;28;20727;-73
2022/01/17 09:29:46;;;;;;;8.25;3.05;;;;;;;3.45;38.19;94203.38;5000475;28;20336;-74
2022/01/17 09:32:14;;;;;;;4.28;3.00;;;;;;;3.29;37.68;94211.22;5006565;28;20073;-72
2022/01/17 09:34:41;;;;;;;5.43;2.70;;;;;;;3.42;37.65;94201.28;5003580;28;20509;-73
2022/01/17 09:37:08;;;;;;;5.00;2.72;;;;;;;3.48;36.70;94214.16;5003838;28;20065;-74
2022/01/17 09:39:34;;;;;;;3.65;2.42;;;;;;;3.39;36.42;94190.22;4999144;28;20038;-75
2022/01/17 09:41:59;;;;;;;4.30;2.85;;;;;;;3.54;36.54;94225.50;5001055;28;20794;-73
2022/01/17 09:44:24;;;;;;;5.15;3.08;;;;;;;3.31;37.49;94209.13;5007506;28;20083;-74
2022/01/17 09:46:53;;;;;;;5.15;2.42;;;;;;;3.28;38.47;94212.25;5004738;28;20105;-73
2022/01/17 09:52:36;;;;;;;4.47;3.38;;;;;;;3.32;39.61;94231.75;4981524;28;20050;-73
2022/01/17 09:55:21;;;;;;;6.53;3.42;;;;;;;3.20;40.08;94225.91;5000558;28;20112;-73
2022/01/17 09:57:51;;;;;;;7.90;3.47;;;;;;;3.11;40.87;94248.47;4995615;28;20070;-72
2022/01/17 10:00:18;;;;;;;9.38;3.13;;;;;;;2.75;41.48;94221.22;5002885;28;20044;-74
2022/01/17 10:02:44;;;;;;;4.80;3.25;;;;;;;3.06;41.77;94237.94;4996456;28;20295;-76
2022/01/17 10:05:10;;;;;;;6.63;3.80;;;;;;;3.23;41.08;94233.25;5005085;28;20517;-73
2022/01/17 10:07:57;;;;;;;6.57;3.40;;;;;;;3.17;41.62;94239.56;5005130;28;20623;-73
2022/01/17 10:10:42;;;;;;;7.28;3.60;;;;;;;3.14;41.62;94244.53;5004300;28;20256;-73
2022/01/17 10:13:12;;;;;;;7.32;4.40;;;;;;;3.07;41.98;94244.78;5004805;28;20060;-73
2022/01/17 10:15:48;;;;;;;6.05;3.10;;;;;;;2.99;42.00;94226.09;5003945;28;20052;-74
2022/01/17 10:18:31;;;;;;;5.10;2.88;;;;;;;3.10;42.08;94261.84;5005170;28;20703;-73
2022/01/17 10:21:03;;;;;;;8.85;4.30;;;;;;;3.21;41.96;94259.03;5003774;28;20017;-73
2022/01/17 10:23:46;;;;;;;8.65;4.43;;;;;;;3.32;41.90;94230.97;5003214;28;20115;-73
2022/01/17 10:27:09;;;;;;;10.02;4.90;;;;;;;3.50;42.23;94238.38;5001727;28;20560;-73
2022/01/17 10:36:56;;;;;;;9.32;5.40;;;;;;;3.28;46.33;94207.00;5001199;28;20051;-72
2022/01/17 10:39:22;;;;;;;15.85;6.20;;;;;;;3.35;46.82;94225.97;5006331;28;20441;-73
2022/01/17 10:41:48;;;;;;;10.38;6.25;;;;;;;3.12;47.53;94215.91;5003161;28;20026;-74
2022/01/17 10:44:33;;;;;;;13.82;5.35;;;;;;;2.61;47.87;94158.88;5004064;28;20576;-73
2022/01/17 10:47:27;;;;;;;9.68;5.82;;;;;;;2.90;48.18;94213.41;5007186;28;20386;-72
2022/01/17 10:49:55;;;;;;;10.57;6.03;;;;;;;3.06;48.10;94219.53;5003672;28;20121;-73
2022/01/17 10:52:39;;;;;;;8.60;5.70;;;;;;;3.01;47.65;94227.41;5005778;28;20448;-73
2022/01/17 10:55:17;;;;;;;10.85;5.20;;;;;;;2.98;46.83;94193.75;5004017;28;20843;-73
2022/01/17 10:57:49;;;;;;;10.15;5.43;;;;;;;3.18;46.87;94235.91;5002330;28;20444;-73
2022/01/17 11:00:18;;;;;;;13.25;5.40;;;;;;;3.10;46.38;94206.66;5007458;28;20393;-72
2022/01/17 11:02:49;;;;;;;8.68;4.60;;;;;;;3.14;46.00;94202.47;5004227;28;20111;-74
2022/01/17 11:05:17;;;;;;;9.20;5.43;;;;;;;3.39;45.78;94213.88;5007527;28;20530;-73
2022/01/17 11:07:48;;;;;;;8.10;4.40;;;;;;;3.36;45.37;94211.78;5005827;28;20037;-73
2022/01/17 11:10:26;;;;;;;9.32;5.40;;;;;;;3.53;45.47;94223.91;5006906;28;20572;-73
2022/01/17 11:12:53;;;;;;;8.55;4.32;;;;;;;3.48;44.06;94226.56;4999150;28;20618;-73
2022/01/17 11:15:21;;;;;;;6.68;3.72;;;;;;;3.29;43.95;94176.25;5006452;28;20029;-75
2022/01/17 11:17:52;;;;;;;5.35;3.25;;;;;;;3.53;43.93;94219.44;5007572;28;20152;-72
2022/01/17 11:20:21;;;;;;;5.40;4.03;;;;;;;3.51;44.08;94207.63;5005050;28;20616;-72
2022/01/17 11:22:49;;;;;;;5.90;3.55;;;;;;;3.35;44.18;94188.38;5004485;28;20033;-73
2022/01/17 11:25:19;;;;;;;11.35;3.90;;;;;;;3.41;44.39;94189.97;5002618;28;20942;-73
2022/01/17 11:27:44;;;;;;;7.57;2.78;;;;;;;3.30;43.75;94176.00;5001961;28;20088;-73
2022/01/17 11:30:11;;;;;;;5.03;3.28;;;;;;;3.25;43.54;94170.72;5007705;28;20029;-73
2022/01/17 11:32:37;;;;;;;4.55;3.00;;;;;;;3.32;43.69;94173.91;5004212;28;20474;-74
2022/01/17 11:35:04;;;;;;;5.20;3.80;;;;;;;3.42;43.79;94188.13;5005837;28;20092;-73
2022/01/17 11:37:35;;;;;;;7.45;3.30;;;;;;;3.58;43.58;94187.91;5002524;28;20132;-74
2022/01/17 11:40:01;;;;;;;5.95;3.17;;;;;;;3.51;43.57;94181.31;5003067;28;20033;-73
2022/01/17 11:42:44;;;;;;;3.85;3.03;;;;;;;3.58;43.64;94192.38;5004361;28;20124;-73
2022/01/17 11:45:21;;;;;;;5.95;3.63;;;;;;;3.68;43.38;94197.66;5001829;28;20025;-73
2022/01/17 11:47:51;;;;;;;7.80;3.50;;;;;;;3.71;43.96;94197.16;5002788;28;20153;-73
2022/01/17 11:50:36;;;;;;;12.13;4.03;;;;;;;3.82;43.03;94203.97;5003944;28;20405;-73
2022/01/17 11:53:11;;;;;;;5.43;3.75;;;;;;;3.79;43.25;94199.25;5004682;28;20033;-73
2022/01/17 11:55:42;;;;;;;3.17;2.65;;;;;;;3.92;42.70;94193.47;5003294;28;20128;-73
2022/01/17 11:58:21;;;;;;;6.60;2.90;;;;;;;3.93;42.53;94184.53;5007991;28;20092;-72
2022/01/17 12:01:08;;;;;;;4.90;3.40;;;;;;;4.06;42.31;94177.97;5009157;28;20041;-74
2022/01/17 12:04:01;;;;;;;4.70;3.33;;;;;;;4.00;42.42;94164.03;5006708;28;20493;-74
2022/01/17 12:06:36;;;;;;;4.07;2.78;;;;;;;3.68;42.96;94139.78;5000548;28;20168;-74